sensor_id;sensor_type;location;lat;lon;timestamp;temperature;humidity
15262;DHT22;7733;51.554;13.590;2022-07-06T00:01:17;19.10;96.80
15262;DHT22;7733;51.554;13.590;2022-07-06T00:03:43;18.90;97.10
15262;DHT22;7733;51.554;13.590;2022-07-06T00:06:08;18.70;97.90
15262;DHT22;7733;51.554;13.590;2022-07-06T00:08:34;18.50;98.70
15262;DHT22;7733;51.554;13.590;2022-07-06T00:11:00;18.70;99.50
15262;DHT22;7733;51.554;13.590;2022-07-06T00:13:27;18.80;99.10
15262;DHT22;7733;51.554;13.590;2022-07-06T00:15:53;18.90;99.30
15262;DHT22;7733;51.554;13.590;2022-07-06T00:18:19;18.80;99.50
15262;DHT22;7733;51.554;13.590;2022-07-06T00:20:45;18.60;99.90
15262;DHT22;7733;51.554;13.590;2022-07-06T00:23:10;18.80;99.90
15262;DHT22;7733;51.554;13.590;2022-07-06T00:25:36;18.80;99.90
15262;DHT22;7733;51.554;13.590;2022-07-06T00:28:02;18.80;99.90
15262;DHT22;7733;51.554;13.590;2022-07-06T00:30:28;18.50;99.90
15262;DHT22;7733;51.554;13.590;2022-07-06T00:32:54;18.60;99.90
15262;DHT22;7733;51.554;13.590;2022-07-06T00:35:19;18.70;99.90
15262;DHT22;7733;51.554;13.590;2022-07-06T00:37:45;18.80;99.90
15262;DHT22;7733;51.554;13.590;2022-07-06T00:40:11;18.90;99.90
15262;DHT22;7733;51.554;13.590;2022-07-06T00:42:41;18.80;99.90
15262;DHT22;7733;51.554;13.590;2022-07-06T00:45:09;18.80;99.90
15262;DHT22;7733;51.554;13.590;2022-07-06T00:47:36;18.90;99.90
15262;DHT22;7733;51.554;13.590;2022-07-06T00:50:03;18.90;99.90
15262;DHT22;7733;51.554;13.590;2022-07-06T00:52:50;18.80;99.90
15262;DHT22;7733;51.554;13.590;2022-07-06T00:55:20;18.90;99.90
15262;DHT22;7733;51.554;13.590;2022-07-06T00:57:51;18.80;99.90
15262;DHT22;7733;51.554;13.590;2022-07-06T01:00:19;18.80;99.90
15262;DHT22;7733;51.554;13.590;2022-07-06T01:02:48;18.80;99.90
15262;DHT22;7733;51.554;13.590;2022-07-06T01:05:15;18.50;99.90
15262;DHT22;7733;51.554;13.590;2022-07-06T01:07:43;18.50;99.90
15262;DHT22;7733;51.554;13.590;2022-07-06T01:10:11;18.40;99.90
15262;DHT22;7733;51.554;13.590;2022-07-06T01:12:39;18.30;99.90
15262;DHT22;7733;51.554;13.590;2022-07-06T01:15:09;18.10;99.90
15262;DHT22;7733;51.554;13.590;2022-07-06T01:17:39;18.00;99.90
15262;DHT22;7733;51.554;13.590;2022-07-06T01:20:15;18.00;99.90
15262;DHT22;7733;51.554;13.590;2022-07-06T01:22:46;18.20;99.90
15262;DHT22;7733;51.554;13.590;2022-07-06T01:25:13;18.20;99.90
15262;DHT22;7733;51.554;13.590;2022-07-06T01:27:40;17.90;99.90
15262;DHT22;7733;51.554;13.590;2022-07-06T01:30:15;17.70;99.90
15262;DHT22;7733;51.554;13.590;2022-07-06T01:32:42;17.70;99.90
15262;DHT22;7733;51.554;13.590;2022-07-06T01:35:11;17.70;99.90
15262;DHT22;7733;51.554;13.590;2022-07-06T01:37:38;17.60;99.90
15262;DHT22;7733;51.554;13.590;2022-07-06T01:40:06;17.70;99.90
15262;DHT22;7733;51.554;13.590;2022-07-06T01:42:34;17.80;99.90
15262;DHT22;7733;51.554;13.590;2022-07-06T01:45:01;17.80;99.90
15262;DHT22;7733;51.554;13.590;2022-07-06T01:47:27;17.70;99.90
15262;DHT22;7733;51.554;13.590;2022-07-06T01:49:53;17.70;99.90
15262;DHT22;7733;51.554;13.590;2022-07-06T01:52:19;17.60;99.90
15262;DHT22;7733;51.554;13.590;2022-07-06T01:54:45;17.70;99.90
15262;DHT22;7733;51.554;13.590;2022-07-06T01:57:10;17.60;99.90
15262;DHT22;7733;51.554;13.590;2022-07-06T01:59:36;17.60;99.90
15262;DHT22;7733;51.554;13.590;2022-07-06T02:02:02;17.40;99.90
15262;DHT22;7733;51.554;13.590;2022-07-06T02:04:28;17.40;99.90
15262;DHT22;7733;51.554;13.590;2022-07-06T02:06:53;17.40;99.90
15262;DHT22;7733;51.554;13.590;2022-07-06T02:09:19;17.50;99.90
15262;DHT22;7733;51.554;13.590;2022-07-06T02:11:45;17.40;99.90
15262;DHT22;7733;51.554;13.590;2022-07-06T02:14:10;17.20;99.90
15262;DHT22;7733;51.554;13.590;2022-07-06T02:16:37;17.10;99.90
15262;DHT22;7733;51.554;13.590;2022-07-06T02:19:02;17.20;99.90
15262;DHT22;7733;51.554;13.590;2022-07-06T02:21:28;17.20;99.90
15262;DHT22;7733;51.554;13.590;2022-07-06T02:23:54;17.00;99.90
15262;DHT22;7733;51.554;13.590;2022-07-06T02:26:20;17.00;99.90
15262;DHT22;7733;51.554;13.590;2022-07-06T02:28:45;17.20;99.90
15262;DHT22;7733;51.554;13.590;2022-07-06T02:31:13;17.30;99.90
15262;DHT22;7733;51.554;13.590;2022-07-06T02:33:40;17.40;99.90
15262;DHT22;7733;51.554;13.590;2022-07-06T02:36:07;17.30;99.90
15262;DHT22;7733;51.554;13.590;2022-07-06T02:38:32;16.90;99.90
15262;DHT22;7733;51.554;13.590;2022-07-06T02:40:58;16.80;99.90
15262;DHT22;7733;51.554;13.590;2022-07-06T02:43:24;16.90;99.90
15262;DHT22;7733;51.554;13.590;2022-07-06T02:45:50;16.90;99.90
15262;DHT22;7733;51.554;13.590;2022-07-06T02:48:15;16.90;99.90
15262;DHT22;7733;51.554;13.590;2022-07-06T02:50:41;16.50;99.90
15262;DHT22;7733;51.554;13.590;2022-07-06T02:53:07;16.40;99.90
15262;DHT22;7733;51.554;13.590;2022-07-06T02:55:33;16.00;99.90
15262;DHT22;7733;51.554;13.590;2022-07-06T02:57:58;16.00;99.90
15262;DHT22;7733;51.554;13.590;2022-07-06T03:00:24;16.00;99.90
15262;DHT22;7733;51.554;13.590;2022-07-06T03:02:50;15.70;99.90
15262;DHT22;7733;51.554;13.590;2022-07-06T03:05:15;15.50;99.90
15262;DHT22;7733;51.554;13.590;2022-07-06T03:07:41;15.50;99.90
15262;DHT22;7733;51.554;13.590;2022-07-06T03:10:07;15.40;99.90
15262;DHT22;7733;51.554;13.590;2022-07-06T03:12:33;15.50;99.90
15262;DHT22;7733;51.554;13.590;2022-07-06T03:14:58;15.60;99.90
15262;DHT22;7733;51.554;13.590;2022-07-06T03:17:24;15.70;99.90
15262;DHT22;7733;51.554;13.590;2022-07-06T03:19:50;15.60;99.90
15262;DHT22;7733;51.554;13.590;2022-07-06T03:22:15;15.60;99.90
15262;DHT22;7733;51.554;13.590;2022-07-06T03:24:41;15.40;99.90
15262;DHT22;7733;51.554;13.590;2022-07-06T03:27:07;15.40;99.90
15262;DHT22;7733;51.554;13.590;2022-07-06T03:29:32;15.40;99.90
15262;DHT22;7733;51.554;13.590;2022-07-06T03:31:58;15.50;99.90
15262;DHT22;7733;51.554;13.590;2022-07-06T03:34:23;15.60;99.90
15262;DHT22;7733;51.554;13.590;2022-07-06T03:36:49;15.50;99.90
15262;DHT22;7733;51.554;13.590;2022-07-06T03:39:15;15.70;99.90
15262;DHT22;7733;51.554;13.590;2022-07-06T03:41:40;15.70;99.90
15262;DHT22;7733;51.554;13.590;2022-07-06T03:44:06;15.50;99.90
15262;DHT22;7733;51.554;13.590;2022-07-06T03:46:31;15.50;99.90
15262;DHT22;7733;51.554;13.590;2022-07-06T03:48:57;15.40;99.90
15262;DHT22;7733;51.554;13.590;2022-07-06T03:51:23;15.50;99.90
15262;DHT22;7733;51.554;13.590;2022-07-06T03:53:48;15.50;99.90
15262;DHT22;7733;51.554;13.590;2022-07-06T03:56:14;15.50;99.90
15262;DHT22;7733;51.554;13.590;2022-07-06T03:59:00;15.60;99.90
15262;DHT22;7733;51.554;13.590;2022-07-06T04:01:27;15.60;99.90
15262;DHT22;7733;51.554;13.590;2022-07-06T04:03:53;15.60;99.90
15262;DHT22;7733;51.554;13.590;2022-07-06T04:06:19;15.70;99.90
15262;DHT22;7733;51.554;13.590;2022-07-06T04:08:45;15.70;99.90
15262;DHT22;7733;51.554;13.590;2022-07-06T04:11:11;15.60;99.90
15262;DHT22;7733;51.554;13.590;2022-07-06T04:13:36;15.70;99.90
15262;DHT22;7733;51.554;13.590;2022-07-06T04:16:05;15.70;99.90
15262;DHT22;7733;51.554;13.590;2022-07-06T04:18:31;15.70;99.90
15262;DHT22;7733;51.554;13.590;2022-07-06T04:20:57;15.80;99.90
15262;DHT22;7733;51.554;13.590;2022-07-06T04:23:23;15.90;99.90
15262;DHT22;7733;51.554;13.590;2022-07-06T04:25:49;15.80;99.90
15262;DHT22;7733;51.554;13.590;2022-07-06T04:28:15;15.70;99.90
15262;DHT22;7733;51.554;13.590;2022-07-06T04:30:41;15.40;99.90
15262;DHT22;7733;51.554;13.590;2022-07-06T04:33:07;15.60;99.90
15262;DHT22;7733;51.554;13.590;2022-07-06T04:35:33;15.60;99.90
15262;DHT22;7733;51.554;13.590;2022-07-06T04:37:58;15.70;99.90
15262;DHT22;7733;51.554;13.590;2022-07-06T04:40:24;15.80;99.90
15262;DHT22;7733;51.554;13.590;2022-07-06T04:42:50;15.80;99.90
15262;DHT22;7733;51.554;13.590;2022-07-06T04:45:15;16.00;99.90
15262;DHT22;7733;51.554;13.590;2022-07-06T04:47:41;16.10;99.90
15262;DHT22;7733;51.554;13.590;2022-07-06T04:50:08;16.10;99.90
15262;DHT22;7733;51.554;13.590;2022-07-06T04:52:34;16.10;99.90
15262;DHT22;7733;51.554;13.590;2022-07-06T04:55:00;16.20;99.90
15262;DHT22;7733;51.554;13.590;2022-07-06T04:57:29;16.30;99.90
15262;DHT22;7733;51.554;13.590;2022-07-06T04:59:55;16.40;99.90
15262;DHT22;7733;51.554;13.590;2022-07-06T05:02:21;16.50;99.90
15262;DHT22;7733;51.554;13.590;2022-07-06T05:04:47;16.60;99.90
15262;DHT22;7733;51.554;13.590;2022-07-06T05:07:13;16.80;99.90
15262;DHT22;7733;51.554;13.590;2022-07-06T05:09:39;16.80;99.90
15262;DHT22;7733;51.554;13.590;2022-07-06T05:12:04;17.00;99.90
15262;DHT22;7733;51.554;13.590;2022-07-06T05:14:30;17.00;99.90
15262;DHT22;7733;51.554;13.590;2022-07-06T05:16:56;16.90;99.90
15262;DHT22;7733;51.554;13.590;2022-07-06T05:19:21;17.10;99.90
15262;DHT22;7733;51.554;13.590;2022-07-06T05:21:47;17.20;99.90
15262;DHT22;7733;51.554;13.590;2022-07-06T05:24:13;17.20;99.90
15262;DHT22;7733;51.554;13.590;2022-07-06T05:26:38;17.20;99.90
15262;DHT22;7733;51.554;13.590;2022-07-06T05:29:04;17.50;99.90
15262;DHT22;7733;51.554;13.590;2022-07-06T05:31:29;17.50;99.90
15262;DHT22;7733;51.554;13.590;2022-07-06T05:33:55;17.60;99.90
15262;DHT22;7733;51.554;13.590;2022-07-06T05:36:21;17.60;99.90
15262;DHT22;7733;51.554;13.590;2022-07-06T05:38:46;17.40;99.90
15262;DHT22;7733;51.554;13.590;2022-07-06T05:41:12;17.20;99.90
15262;DHT22;7733;51.554;13.590;2022-07-06T05:43:37;17.10;99.90
15262;DHT22;7733;51.554;13.590;2022-07-06T05:46:04;17.10;99.90
15262;DHT22;7733;51.554;13.590;2022-07-06T05:48:29;17.00;99.90
15262;DHT22;7733;51.554;13.590;2022-07-06T05:51:14;17.10;99.90
15262;DHT22;7733;51.554;13.590;2022-07-06T05:53:40;17.20;99.90
15262;DHT22;7733;51.554;13.590;2022-07-06T05:56:06;17.10;99.90
15262;DHT22;7733;51.554;13.590;2022-07-06T05:58:31;17.30;99.90
15262;DHT22;7733;51.554;13.590;2022-07-06T06:00:57;17.40;99.90
15262;DHT22;7733;51.554;13.590;2022-07-06T06:03:23;17.40;99.90
15262;DHT22;7733;51.554;13.590;2022-07-06T06:05:49;17.50;99.90
15262;DHT22;7733;51.554;13.590;2022-07-06T06:08:15;17.40;99.90
15262;DHT22;7733;51.554;13.590;2022-07-06T06:10:40;17.40;99.90
15262;DHT22;7733;51.554;13.590;2022-07-06T06:13:06;17.50;99.90
15262;DHT22;7733;51.554;13.590;2022-07-06T06:15:32;17.60;99.90
15262;DHT22;7733;51.554;13.590;2022-07-06T06:17:57;17.60;99.90
15262;DHT22;7733;51.554;13.590;2022-07-06T06:20:23;17.60;99.90
15262;DHT22;7733;51.554;13.590;2022-07-06T06:22:53;17.80;99.90
15262;DHT22;7733;51.554;13.590;2022-07-06T06:25:34;17.90;99.90
15262;DHT22;7733;51.554;13.590;2022-07-06T06:28:03;18.00;99.90
15262;DHT22;7733;51.554;13.590;2022-07-06T06:30:30;18.10;99.90
15262;DHT22;7733;51.554;13.590;2022-07-06T06:35:34;17.90;99.90
15262;DHT22;7733;51.554;13.590;2022-07-06T06:38:00;17.70;99.90
15262;DHT22;7733;51.554;13.590;2022-07-06T06:40:26;17.70;99.90
15262;DHT22;7733;51.554;13.590;2022-07-06T06:42:51;17.80;99.90
15262;DHT22;7733;51.554;13.590;2022-07-06T06:45:17;17.70;99.90
15262;DHT22;7733;51.554;13.590;2022-07-06T06:47:42;17.90;99.90
15262;DHT22;7733;51.554;13.590;2022-07-06T06:50:08;18.10;99.90
15262;DHT22;7733;51.554;13.590;2022-07-06T06:52:34;18.20;99.90
15262;DHT22;7733;51.554;13.590;2022-07-06T06:54:59;18.40;99.90
15262;DHT22;7733;51.554;13.590;2022-07-06T06:57:25;18.20;99.90
15262;DHT22;7733;51.554;13.590;2022-07-06T06:59:51;18.20;99.90
15262;DHT22;7733;51.554;13.590;2022-07-06T07:02:16;18.20;99.90
15262;DHT22;7733;51.554;13.590;2022-07-06T07:04:43;18.20;99.90
15262;DHT22;7733;51.554;13.590;2022-07-06T07:07:08;18.20;99.90
15262;DHT22;7733;51.554;13.590;2022-07-06T07:09:34;18.30;99.90
15262;DHT22;7733;51.554;13.590;2022-07-06T07:11:59;18.50;99.90
15262;DHT22;7733;51.554;13.590;2022-07-06T07:14:25;18.40;99.90
15262;DHT22;7733;51.554;13.590;2022-07-06T07:16:53;18.50;99.90
15262;DHT22;7733;51.554;13.590;2022-07-06T07:19:18;18.60;99.90
15262;DHT22;7733;51.554;13.590;2022-07-06T07:21:44;18.80;99.90
15262;DHT22;7733;51.554;13.590;2022-07-06T07:24:10;18.70;99.90
15262;DHT22;7733;51.554;13.590;2022-07-06T07:26:36;18.50;99.90
15262;DHT22;7733;51.554;13.590;2022-07-06T07:29:02;18.50;99.90
15262;DHT22;7733;51.554;13.590;2022-07-06T07:31:27;18.60;99.90
15262;DHT22;7733;51.554;13.590;2022-07-06T07:33:53;18.60;99.90
15262;DHT22;7733;51.554;13.590;2022-07-06T07:36:22;18.50;99.90
15262;DHT22;7733;51.554;13.590;2022-07-06T07:38:49;18.70;99.80
15262;DHT22;7733;51.554;13.590;2022-07-06T07:41:15;19.00;99.00
15262;DHT22;7733;51.554;13.590;2022-07-06T07:43:42;18.80;97.80
15262;DHT22;7733;51.554;13.590;2022-07-06T07:46:08;18.80;96.70
15262;DHT22;7733;51.554;13.590;2022-07-06T07:48:34;18.90;96.80
15262;DHT22;7733;51.554;13.590;2022-07-06T07:50:59;19.00;96.00
15262;DHT22;7733;51.554;13.590;2022-07-06T07:53:25;18.90;95.70
15262;DHT22;7733;51.554;13.590;2022-07-06T07:55:51;18.80;96.20
15262;DHT22;7733;51.554;13.590;2022-07-06T07:58:17;18.80;96.80
15262;DHT22;7733;51.554;13.590;2022-07-06T08:00:43;19.00;97.10
15262;DHT22;7733;51.554;13.590;2022-07-06T08:03:09;19.20;96.80
15262;DHT22;7733;51.554;13.590;2022-07-06T08:05:34;19.10;96.80
15262;DHT22;7733;51.554;13.590;2022-07-06T08:08:00;19.50;96.20
15262;DHT22;7733;51.554;13.590;2022-07-06T08:10:26;19.50;96.60
15262;DHT22;7733;51.554;13.590;2022-07-06T08:12:51;19.70;95.90
15262;DHT22;7733;51.554;13.590;2022-07-06T08:15:17;19.90;96.10
15262;DHT22;7733;51.554;13.590;2022-07-06T08:17:43;20.00;95.70
15262;DHT22;7733;51.554;13.590;2022-07-06T08:20:08;19.80;93.70
15262;DHT22;7733;51.554;13.590;2022-07-06T08:22:37;19.60;94.30
15262;DHT22;7733;51.554;13.590;2022-07-06T08:25:04;19.70;94.40
15262;DHT22;7733;51.554;13.590;2022-07-06T08:27:30;19.70;94.50
15262;DHT22;7733;51.554;13.590;2022-07-06T08:29:56;19.90;93.90
15262;DHT22;7733;51.554;13.590;2022-07-06T08:32:21;20.10;94.20
15262;DHT22;7733;51.554;13.590;2022-07-06T08:34:47;20.30;93.50
15262;DHT22;7733;51.554;13.590;2022-07-06T08:37:13;20.60;92.80
15262;DHT22;7733;51.554;13.590;2022-07-06T08:39:39;20.70;92.70
15262;DHT22;7733;51.554;13.590;2022-07-06T08:42:05;20.50;91.90
15262;DHT22;7733;51.554;13.590;2022-07-06T08:44:32;20.40;83.50
15262;DHT22;7733;51.554;13.590;2022-07-06T08:47:05;20.10;84.30
15262;DHT22;7733;51.554;13.590;2022-07-06T08:49:34;19.80;85.00
15262;DHT22;7733;51.554;13.590;2022-07-06T08:52:03;19.80;85.80
15262;DHT22;7733;51.554;13.590;2022-07-06T08:54:30;19.80;85.70
15262;DHT22;7733;51.554;13.590;2022-07-06T08:56:56;20.00;87.30
15262;DHT22;7733;51.554;13.590;2022-07-06T08:59:22;20.30;86.00
15262;DHT22;7733;51.554;13.590;2022-07-06T09:01:47;20.90;85.80
15262;DHT22;7733;51.554;13.590;2022-07-06T09:04:16;20.80;85.80
15262;DHT22;7733;51.554;13.590;2022-07-06T09:06:45;20.30;88.00
15262;DHT22;7733;51.554;13.590;2022-07-06T09:09:19;20.40;88.00
15262;DHT22;7733;51.554;13.590;2022-07-06T09:11:50;20.80;85.90
15262;DHT22;7733;51.554;13.590;2022-07-06T09:14:17;20.90;85.70
15262;DHT22;7733;51.554;13.590;2022-07-06T09:16:45;20.80;84.90
15262;DHT22;7733;51.554;13.590;2022-07-06T09:19:12;20.30;86.30
15262;DHT22;7733;51.554;13.590;2022-07-06T09:21:39;20.60;86.10
15262;DHT22;7733;51.554;13.590;2022-07-06T09:24:09;20.20;87.10
15262;DHT22;7733;51.554;13.590;2022-07-06T09:26:36;20.10;88.00
15262;DHT22;7733;51.554;13.590;2022-07-06T09:29:02;20.60;88.10
15262;DHT22;7733;51.554;13.590;2022-07-06T09:31:29;20.70;86.80
15262;DHT22;7733;51.554;13.590;2022-07-06T09:34:05;20.60;86.60
15262;DHT22;7733;51.554;13.590;2022-07-06T09:36:46;20.50;86.40
15262;DHT22;7733;51.554;13.590;2022-07-06T09:39:29;20.30;85.70
15262;DHT22;7733;51.554;13.590;2022-07-06T09:41:59;20.40;84.60
15262;DHT22;7733;51.554;13.590;2022-07-06T09:44:28;20.10;85.80
15262;DHT22;7733;51.554;13.590;2022-07-06T09:46:56;20.10;86.30
15262;DHT22;7733;51.554;13.590;2022-07-06T09:49:24;20.20;87.10
15262;DHT22;7733;51.554;13.590;2022-07-06T09:52:02;20.30;84.50
15262;DHT22;7733;51.554;13.590;2022-07-06T09:54:34;20.90;82.20
15262;DHT22;7733;51.554;13.590;2022-07-06T09:57:01;21.40;83.00
15262;DHT22;7733;51.554;13.590;2022-07-06T09:59:29;21.00;82.30
15262;DHT22;7733;51.554;13.590;2022-07-06T10:01:57;20.40;82.80
15262;DHT22;7733;51.554;13.590;2022-07-06T10:04:25;20.70;84.10
15262;DHT22;7733;51.554;13.590;2022-07-06T10:06:54;20.50;84.00
15262;DHT22;7733;51.554;13.590;2022-07-06T10:09:23;20.40;85.50
15262;DHT22;7733;51.554;13.590;2022-07-06T10:11:55;20.40;86.60
15262;DHT22;7733;51.554;13.590;2022-07-06T10:14:24;20.70;85.30
15262;DHT22;7733;51.554;13.590;2022-07-06T10:16:52;20.80;84.70
15262;DHT22;7733;51.554;13.590;2022-07-06T10:19:19;20.70;85.40
15262;DHT22;7733;51.554;13.590;2022-07-06T10:21:47;20.60;84.10
15262;DHT22;7733;51.554;13.590;2022-07-06T10:24:13;20.50;84.70
15262;DHT22;7733;51.554;13.590;2022-07-06T10:26:39;20.30;85.00
15262;DHT22;7733;51.554;13.590;2022-07-06T10:29:06;20.30;85.20
15262;DHT22;7733;51.554;13.590;2022-07-06T10:31:35;20.10;84.80
15262;DHT22;7733;51.554;13.590;2022-07-06T10:34:15;20.00;84.50
15262;DHT22;7733;51.554;13.590;2022-07-06T10:36:47;20.00;85.00
15262;DHT22;7733;51.554;13.590;2022-07-06T10:39:32;20.20;84.10
15262;DHT22;7733;51.554;13.590;2022-07-06T10:42:42;20.40;83.00
15262;DHT22;7733;51.554;13.590;2022-07-06T10:50:36;20.40;82.10
15262;DHT22;7733;51.554;13.590;2022-07-06T10:53:02;20.40;81.90
15262;DHT22;7733;51.554;13.590;2022-07-06T10:55:37;20.60;81.80
15262;DHT22;7733;51.554;13.590;2022-07-06T10:58:05;20.50;81.40
15262;DHT22;7733;51.554;13.590;2022-07-06T11:00:54;20.30;82.50
15262;DHT22;7733;51.554;13.590;2022-07-06T11:06:18;20.10;82.60
15262;DHT22;7733;51.554;13.590;2022-07-06T11:16:32;20.70;79.40
15262;DHT22;7733;51.554;13.590;2022-07-06T11:19:09;21.20;77.10
15262;DHT22;7733;51.554;13.590;2022-07-06T11:24:16;22.00;72.50
15262;DHT22;7733;51.554;13.590;2022-07-06T11:26:46;22.20;69.60
15262;DHT22;7733;51.554;13.590;2022-07-06T11:29:18;21.90;70.90
15262;DHT22;7733;51.554;13.590;2022-07-06T11:31:51;22.20;71.10
15262;DHT22;7733;51.554;13.590;2022-07-06T11:34:23;22.50;67.20
15262;DHT22;7733;51.554;13.590;2022-07-06T11:36:54;22.50;67.70
15262;DHT22;7733;51.554;13.590;2022-07-06T11:39:28;22.20;66.40
15262;DHT22;7733;51.554;13.590;2022-07-06T11:41:56;21.80;66.80
15262;DHT22;7733;51.554;13.590;2022-07-06T11:44:22;21.50;69.50
15262;DHT22;7733;51.554;13.590;2022-07-06T11:46:49;21.40;69.70
15262;DHT22;7733;51.554;13.590;2022-07-06T11:49:16;21.30;71.50
15262;DHT22;7733;51.554;13.590;2022-07-06T11:51:44;21.00;73.70
15262;DHT22;7733;51.554;13.590;2022-07-06T11:54:12;21.10;74.30
15262;DHT22;7733;51.554;13.590;2022-07-06T11:59:24;21.20;74.20
15262;DHT22;7733;51.554;13.590;2022-07-06T12:02:02;21.60;73.10
15262;DHT22;7733;51.554;13.590;2022-07-06T12:04:37;21.90;71.80
15262;DHT22;7733;51.554;13.590;2022-07-06T12:07:06;21.90;70.80
15262;DHT22;7733;51.554;13.590;2022-07-06T12:09:34;21.80;71.40
15262;DHT22;7733;51.554;13.590;2022-07-06T12:12:03;21.80;71.10
15262;DHT22;7733;51.554;13.590;2022-07-06T12:14:31;21.50;71.00
15262;DHT22;7733;51.554;13.590;2022-07-06T12:17:04;21.70;71.30
15262;DHT22;7733;51.554;13.590;2022-07-06T12:19:31;21.80;70.50
15262;DHT22;7733;51.554;13.590;2022-07-06T12:21:57;21.90;71.10
15262;DHT22;7733;51.554;13.590;2022-07-06T12:24:24;22.30;70.70
15262;DHT22;7733;51.554;13.590;2022-07-06T12:26:54;22.60;68.90
15262;DHT22;7733;51.554;13.590;2022-07-06T12:29:21;22.60;67.80
15262;DHT22;7733;51.554;13.590;2022-07-06T12:34:28;22.40;68.00
15262;DHT22;7733;51.554;13.590;2022-07-06T12:37:06;22.20;67.10
15262;DHT22;7733;51.554;13.590;2022-07-06T12:39:41;22.40;67.10
15262;DHT22;7733;51.554;13.590;2022-07-06T12:42:08;22.00;67.30
15262;DHT22;7733;51.554;13.590;2022-07-06T12:44:42;21.70;67.90
15262;DHT22;7733;51.554;13.590;2022-07-06T12:47:10;21.60;69.20
15262;DHT22;7733;51.554;13.590;2022-07-06T12:49:38;21.60;68.70
15262;DHT22;7733;51.554;13.590;2022-07-06T12:52:11;21.80;68.70
15262;DHT22;7733;51.554;13.590;2022-07-06T12:54:44;21.80;68.80
15262;DHT22;7733;51.554;13.590;2022-07-06T12:57:22;22.20;68.70
15262;DHT22;7733;51.554;13.590;2022-07-06T13:02:30;21.90;66.70
15262;DHT22;7733;51.554;13.590;2022-07-06T13:05:05;21.90;66.50
15262;DHT22;7733;51.554;13.590;2022-07-06T13:07:37;22.10;66.80
15262;DHT22;7733;51.554;13.590;2022-07-06T13:10:10;22.60;66.30
15262;DHT22;7733;51.554;13.590;2022-07-06T13:12:37;23.20;64.70
15262;DHT22;7733;51.554;13.590;2022-07-06T13:15:05;22.50;64.20
15262;DHT22;7733;51.554;13.590;2022-07-06T13:17:31;21.80;66.60
15262;DHT22;7733;51.554;13.590;2022-07-06T13:19:58;21.60;66.50
15262;DHT22;7733;51.554;13.590;2022-07-06T13:22:23;21.60;67.20
15262;DHT22;7733;51.554;13.590;2022-07-06T13:24:49;21.60;66.00
15262;DHT22;7733;51.554;13.590;2022-07-06T13:27:15;21.70;67.70
15262;DHT22;7733;51.554;13.590;2022-07-06T13:29:40;21.70;68.50
15262;DHT22;7733;51.554;13.590;2022-07-06T13:32:06;22.00;68.20
15262;DHT22;7733;51.554;13.590;2022-07-06T13:34:33;22.10;66.60
15262;DHT22;7733;51.554;13.590;2022-07-06T13:37:00;22.40;66.20
15262;DHT22;7733;51.554;13.590;2022-07-06T13:39:26;22.20;64.70
15262;DHT22;7733;51.554;13.590;2022-07-06T13:41:53;21.90;65.90
15262;DHT22;7733;51.554;13.590;2022-07-06T13:44:20;21.70;65.50
15262;DHT22;7733;51.554;13.590;2022-07-06T13:46:45;21.60;65.80
15262;DHT22;7733;51.554;13.590;2022-07-06T13:49:12;21.50;66.50
15262;DHT22;7733;51.554;13.590;2022-07-06T13:51:38;21.70;65.40
15262;DHT22;7733;51.554;13.590;2022-07-06T13:54:03;21.60;65.90
15262;DHT22;7733;51.554;13.590;2022-07-06T13:56:29;21.80;65.50
15262;DHT22;7733;51.554;13.590;2022-07-06T13:58:56;22.10;64.60
15262;DHT22;7733;51.554;13.590;2022-07-06T14:01:21;22.30;63.70
15262;DHT22;7733;51.554;13.590;2022-07-06T14:03:48;22.60;62.70
15262;DHT22;7733;51.554;13.590;2022-07-06T14:06:14;22.50;61.70
15262;DHT22;7733;51.554;13.590;2022-07-06T14:08:42;22.30;62.00
15262;DHT22;7733;51.554;13.590;2022-07-06T14:11:09;22.00;62.90
15262;DHT22;7733;51.554;13.590;2022-07-06T14:13:36;22.00;62.00
15262;DHT22;7733;51.554;13.590;2022-07-06T14:16:03;21.80;61.80
15262;DHT22;7733;51.554;13.590;2022-07-06T14:18:30;21.60;62.10
15262;DHT22;7733;51.554;13.590;2022-07-06T14:20:56;21.80;62.80
15262;DHT22;7733;51.554;13.590;2022-07-06T14:23:22;21.80;63.00
15262;DHT22;7733;51.554;13.590;2022-07-06T14:25:49;21.80;61.60
15262;DHT22;7733;51.554;13.590;2022-07-06T14:28:16;21.90;62.00
15262;DHT22;7733;51.554;13.590;2022-07-06T14:30:43;22.20;61.80
15262;DHT22;7733;51.554;13.590;2022-07-06T14:33:11;21.80;61.70
15262;DHT22;7733;51.554;13.590;2022-07-06T14:35:40;21.80;62.50
15262;DHT22;7733;51.554;13.590;2022-07-06T14:38:08;22.20;62.40
15262;DHT22;7733;51.554;13.590;2022-07-06T14:40:35;22.40;61.20
15262;DHT22;7733;51.554;13.590;2022-07-06T14:43:02;22.30;60.30
15262;DHT22;7733;51.554;13.590;2022-07-06T14:45:29;22.10;60.80
15262;DHT22;7733;51.554;13.590;2022-07-06T14:47:55;22.20;59.60
15262;DHT22;7733;51.554;13.590;2022-07-06T14:50:21;22.80;59.20
15262;DHT22;7733;51.554;13.590;2022-07-06T14:52:50;22.50;58.10
15262;DHT22;7733;51.554;13.590;2022-07-06T14:55:17;22.50;58.30
15262;DHT22;7733;51.554;13.590;2022-07-06T14:57:43;22.40;58.80
15262;DHT22;7733;51.554;13.590;2022-07-06T15:00:09;22.20;60.00
15262;DHT22;7733;51.554;13.590;2022-07-06T15:02:36;22.10;59.40
15262;DHT22;7733;51.554;13.590;2022-07-06T15:05:02;21.90;60.00
15262;DHT22;7733;51.554;13.590;2022-07-06T15:07:28;21.90;60.40
15262;DHT22;7733;51.554;13.590;2022-07-06T15:09:55;21.90;60.70
15262;DHT22;7733;51.554;13.590;2022-07-06T15:12:21;21.90;60.60
15262;DHT22;7733;51.554;13.590;2022-07-06T15:14:46;21.60;59.60
15262;DHT22;7733;51.554;13.590;2022-07-06T15:17:12;21.70;60.00
15262;DHT22;7733;51.554;13.590;2022-07-06T15:19:38;21.70;59.90
15262;DHT22;7733;51.554;13.590;2022-07-06T15:22:03;21.90;60.10
15262;DHT22;7733;51.554;13.590;2022-07-06T15:24:29;21.80;59.20
15262;DHT22;7733;51.554;13.590;2022-07-06T15:26:55;21.60;59.70
15262;DHT22;7733;51.554;13.590;2022-07-06T15:29:20;21.80;60.40
15262;DHT22;7733;51.554;13.590;2022-07-06T15:31:46;21.80;61.30
15262;DHT22;7733;51.554;13.590;2022-07-06T15:34:11;22.00;60.90
15262;DHT22;7733;51.554;13.590;2022-07-06T15:36:37;21.90;61.40
15262;DHT22;7733;51.554;13.590;2022-07-06T15:39:03;22.20;61.00
15262;DHT22;7733;51.554;13.590;2022-07-06T15:41:29;22.10;59.70
15262;DHT22;7733;51.554;13.590;2022-07-06T15:43:55;21.90;59.50
15262;DHT22;7733;51.554;13.590;2022-07-06T15:46:20;21.80;60.00
15262;DHT22;7733;51.554;13.590;2022-07-06T15:48:46;21.50;61.10
15262;DHT22;7733;51.554;13.590;2022-07-06T15:51:15;21.60;60.80
15262;DHT22;7733;51.554;13.590;2022-07-06T15:53:41;21.60;61.00
15262;DHT22;7733;51.554;13.590;2022-07-06T15:56:11;21.60;60.40
15262;DHT22;7733;51.554;13.590;2022-07-06T15:58:37;21.40;60.30
15262;DHT22;7733;51.554;13.590;2022-07-06T16:01:02;21.50;61.30